sensor_id;sensor_type;location;lat;lon;timestamp;temperature;humidity
21861;DHT22;11095;48.066;8.540;2022-09-24T00:01:32;11.10;99.90
21861;DHT22;11095;48.066;8.540;2022-09-24T00:04:01;11.10;99.90
21861;DHT22;11095;48.066;8.540;2022-09-24T00:06:29;11.10;99.90
21861;DHT22;11095;48.066;8.540;2022-09-24T00:08:55;11.10;99.90
21861;DHT22;11095;48.066;8.540;2022-09-24T00:11:24;11.10;99.90
21861;DHT22;11095;48.066;8.540;2022-09-24T00:13:51;11.10;99.90
21861;DHT22;11095;48.066;8.540;2022-09-24T00:16:19;11.00;99.90
21861;DHT22;11095;48.066;8.540;2022-09-24T00:18:45;11.00;99.90
21861;DHT22;11095;48.066;8.540;2022-09-24T00:23:37;11.00;99.90
21861;DHT22;11095;48.066;8.540;2022-09-24T00:26:02;11.00;99.90
21861;DHT22;11095;48.066;8.540;2022-09-24T00:28:49;11.00;99.90
21861;DHT22;11095;48.066;8.540;2022-09-24T00:31:15;11.00;99.90
21861;DHT22;11095;48.066;8.540;2022-09-24T00:33:41;10.90;99.90
21861;DHT22;11095;48.066;8.540;2022-09-24T00:36:08;10.90;99.90
21861;DHT22;11095;48.066;8.540;2022-09-24T00:38:33;10.90;99.90
21861;DHT22;11095;48.066;8.540;2022-09-24T00:41:00;10.90;99.90
21861;DHT22;11095;48.066;8.540;2022-09-24T00:43:28;10.90;99.90
21861;DHT22;11095;48.066;8.540;2022-09-24T00:46:20;10.80;99.90
21861;DHT22;11095;48.066;8.540;2022-09-24T00:48:44;10.90;99.90
21861;DHT22;11095;48.066;8.540;2022-09-24T00:51:12;10.80;99.90
21861;DHT22;11095;48.066;8.540;2022-09-24T00:53:40;10.90;99.90
21861;DHT22;11095;48.066;8.540;2022-09-24T00:56:08;10.90;99.90
21861;DHT22;11095;48.066;8.540;2022-09-24T00:58:35;10.90;99.90
21861;DHT22;11095;48.066;8.540;2022-09-24T01:01:04;10.80;99.90
21861;DHT22;11095;48.066;8.540;2022-09-24T01:03:31;10.80;99.90
21861;DHT22;11095;48.066;8.540;2022-09-24T01:05:58;10.90;99.90
21861;DHT22;11095;48.066;8.540;2022-09-24T01:08:24;10.90;99.90
21861;DHT22;11095;48.066;8.540;2022-09-24T01:11:12;10.90;99.90
21861;DHT22;11095;48.066;8.540;2022-09-24T01:16:44;10.90;99.90
21861;DHT22;11095;48.066;8.540;2022-09-24T01:28:12;10.80;99.90
21861;DHT22;11095;48.066;8.540;2022-09-24T01:30:43;10.80;99.90
21861;DHT22;11095;48.066;8.540;2022-09-24T01:33:16;10.80;99.90
21861;DHT22;11095;48.066;8.540;2022-09-24T01:35:48;10.70;99.90
21861;DHT22;11095;48.066;8.540;2022-09-24T01:38:20;10.70;99.90
21861;DHT22;11095;48.066;8.540;2022-09-24T01:40:48;10.80;99.90
21861;DHT22;11095;48.066;8.540;2022-09-24T01:43:16;10.70;99.90
21861;DHT22;11095;48.066;8.540;2022-09-24T01:45:43;10.70;99.90
21861;DHT22;11095;48.066;8.540;2022-09-24T01:48:09;10.70;99.90
21861;DHT22;11095;48.066;8.540;2022-09-24T01:50:44;10.70;99.90
21861;DHT22;11095;48.066;8.540;2022-09-24T01:53:16;10.70;99.90
21861;DHT22;11095;48.066;8.540;2022-09-24T01:55:49;10.70;99.90
21861;DHT22;11095;48.066;8.540;2022-09-24T01:58:27;10.70;99.90
21861;DHT22;11095;48.066;8.540;2022-09-24T02:01:04;10.70;99.90
21861;DHT22;11095;48.066;8.540;2022-09-24T02:03:35;10.70;99.90
21861;DHT22;11095;48.066;8.540;2022-09-24T02:06:09;10.70;99.90
21861;DHT22;11095;48.066;8.540;2022-09-24T02:08:39;10.70;99.90
21861;DHT22;11095;48.066;8.540;2022-09-24T02:11:09;10.70;99.90
21861;DHT22;11095;48.066;8.540;2022-09-24T02:13:51;10.70;99.90
21861;DHT22;11095;48.066;8.540;2022-09-24T02:16:28;10.80;99.90
21861;DHT22;11095;48.066;8.540;2022-09-24T02:18:56;10.80;99.90
21861;DHT22;11095;48.066;8.540;2022-09-24T02:21:24;10.80;99.90
21861;DHT22;11095;48.066;8.540;2022-09-24T02:23:57;10.90;99.90
21861;DHT22;11095;48.066;8.540;2022-09-24T02:26:24;10.90;99.90
21861;DHT22;11095;48.066;8.540;2022-09-24T02:28:50;10.90;99.90
21861;DHT22;11095;48.066;8.540;2022-09-24T02:31:23;11.00;99.90
21861;DHT22;11095;48.066;8.540;2022-09-24T02:33:52;11.10;99.90
21861;DHT22;11095;48.066;8.540;2022-09-24T02:36:37;11.10;99.90
21861;DHT22;11095;48.066;8.540;2022-09-24T02:39:03;11.10;99.90
21861;DHT22;11095;48.066;8.540;2022-09-24T02:41:30;11.10;99.90
21861;DHT22;11095;48.066;8.540;2022-09-24T02:43:56;11.10;99.90
21861;DHT22;11095;48.066;8.540;2022-09-24T02:46:22;11.10;99.90
21861;DHT22;11095;48.066;8.540;2022-09-24T02:48:48;11.10;99.90
21861;DHT22;11095;48.066;8.540;2022-09-24T02:51:14;11.10;99.90
21861;DHT22;11095;48.066;8.540;2022-09-24T02:53:40;11.10;99.90
21861;DHT22;11095;48.066;8.540;2022-09-24T02:56:06;11.10;99.90
21861;DHT22;11095;48.066;8.540;2022-09-24T02:58:33;11.10;99.90
21861;DHT22;11095;48.066;8.540;2022-09-24T03:00:58;11.10;99.90
21861;DHT22;11095;48.066;8.540;2022-09-24T03:03:25;11.10;99.90
21861;DHT22;11095;48.066;8.540;2022-09-24T03:05:51;11.10;99.90
21861;DHT22;11095;48.066;8.540;2022-09-24T03:08:18;11.20;99.90
21861;DHT22;11095;48.066;8.540;2022-09-24T03:10:43;11.20;99.90
21861;DHT22;11095;48.066;8.540;2022-09-24T03:13:09;11.20;99.90
21861;DHT22;11095;48.066;8.540;2022-09-24T03:15:35;11.20;99.90
21861;DHT22;11095;48.066;8.540;2022-09-24T03:18:01;11.20;99.90
21861;DHT22;11095;48.066;8.540;2022-09-24T03:20:28;11.20;99.90
21861;DHT22;11095;48.066;8.540;2022-09-24T03:22:53;11.20;99.90
21861;DHT22;11095;48.066;8.540;2022-09-24T03:25:19;11.20;99.90
21861;DHT22;11095;48.066;8.540;2022-09-24T03:27:45;11.20;99.90
21861;DHT22;11095;48.066;8.540;2022-09-24T03:30:12;11.20;99.90
21861;DHT22;11095;48.066;8.540;2022-09-24T03:32:56;11.20;99.90
21861;DHT22;11095;48.066;8.540;2022-09-24T03:35:21;11.20;99.90
21861;DHT22;11095;48.066;8.540;2022-09-24T03:37:47;11.20;99.90
21861;DHT22;11095;48.066;8.540;2022-09-24T03:40:13;11.20;99.90
21861;DHT22;11095;48.066;8.540;2022-09-24T03:42:38;11.20;99.90
21861;DHT22;11095;48.066;8.540;2022-09-24T03:45:04;11.20;99.90
21861;DHT22;11095;48.066;8.540;2022-09-24T03:47:31;11.20;99.90
21861;DHT22;11095;48.066;8.540;2022-09-24T03:49:57;11.20;99.90
21861;DHT22;11095;48.066;8.540;2022-09-24T03:52:23;11.20;99.90
21861;DHT22;11095;48.066;8.540;2022-09-24T03:54:49;11.20;99.90
21861;DHT22;11095;48.066;8.540;2022-09-24T03:57:15;11.20;99.90
21861;DHT22;11095;48.066;8.540;2022-09-24T03:59:41;11.20;99.90
21861;DHT22;11095;48.066;8.540;2022-09-24T04:02:07;11.10;99.90
21861;DHT22;11095;48.066;8.540;2022-09-24T04:04:33;11.10;99.90
21861;DHT22;11095;48.066;8.540;2022-09-24T04:06:59;11.10;99.90
21861;DHT22;11095;48.066;8.540;2022-09-24T04:09:25;11.10;99.90
21861;DHT22;11095;48.066;8.540;2022-09-24T04:11:51;11.10;99.90
21861;DHT22;11095;48.066;8.540;2022-09-24T04:14:18;11.00;99.90
21861;DHT22;11095;48.066;8.540;2022-09-24T04:16:44;11.00;99.90
21861;DHT22;11095;48.066;8.540;2022-09-24T04:19:13;11.00;99.90
21861;DHT22;11095;48.066;8.540;2022-09-24T04:21:46;11.00;99.90
21861;DHT22;11095;48.066;8.540;2022-09-24T04:24:12;11.00;99.90
21861;DHT22;11095;48.066;8.540;2022-09-24T04:26:37;11.00;99.90
21861;DHT22;11095;48.066;8.540;2022-09-24T04:29:03;11.00;99.90
21861;DHT22;11095;48.066;8.540;2022-09-24T04:31:30;11.00;99.90
21861;DHT22;11095;48.066;8.540;2022-09-24T04:33:58;11.00;99.90
21861;DHT22;11095;48.066;8.540;2022-09-24T04:36:24;11.00;99.90
21861;DHT22;11095;48.066;8.540;2022-09-24T04:38:50;11.00;99.90
21861;DHT22;11095;48.066;8.540;2022-09-24T04:41:16;11.00;99.90
21861;DHT22;11095;48.066;8.540;2022-09-24T04:43:42;11.00;99.90
21861;DHT22;11095;48.066;8.540;2022-09-24T04:46:08;11.00;99.90
21861;DHT22;11095;48.066;8.540;2022-09-24T04:48:34;11.00;99.90
21861;DHT22;11095;48.066;8.540;2022-09-24T04:51:03;11.00;99.90
21861;DHT22;11095;48.066;8.540;2022-09-24T04:53:30;11.10;99.90
21861;DHT22;11095;48.066;8.540;2022-09-24T04:55:57;11.10;99.90
21861;DHT22;11095;48.066;8.540;2022-09-24T04:58:24;11.10;99.90
21861;DHT22;11095;48.066;8.540;2022-09-24T05:00:51;11.10;99.90
21861;DHT22;11095;48.066;8.540;2022-09-24T05:03:17;11.10;99.90
21861;DHT22;11095;48.066;8.540;2022-09-24T05:05:46;11.10;99.90
21861;DHT22;11095;48.066;8.540;2022-09-24T05:08:12;11.10;99.90
21861;DHT22;11095;48.066;8.540;2022-09-24T05:10:38;11.10;99.90
21861;DHT22;11095;48.066;8.540;2022-09-24T05:13:03;11.10;99.90
21861;DHT22;11095;48.066;8.540;2022-09-24T05:15:29;11.10;99.90
21861;DHT22;11095;48.066;8.540;2022-09-24T05:17:55;11.10;99.90
21861;DHT22;11095;48.066;8.540;2022-09-24T05:20:21;11.10;99.90
21861;DHT22;11095;48.066;8.540;2022-09-24T05:22:47;11.10;99.90
21861;DHT22;11095;48.066;8.540;2022-09-24T05:25:18;11.10;99.90
21861;DHT22;11095;48.066;8.540;2022-09-24T05:30:15;11.10;99.90
21861;DHT22;11095;48.066;8.540;2022-09-24T05:32:41;11.00;99.90
21861;DHT22;11095;48.066;8.540;2022-09-24T05:35:07;11.00;99.90
21861;DHT22;11095;48.066;8.540;2022-09-24T05:37:35;11.00;99.90
21861;DHT22;11095;48.066;8.540;2022-09-24T05:40:02;11.00;99.90
21861;DHT22;11095;48.066;8.540;2022-09-24T05:42:49;11.00;99.90
21861;DHT22;11095;48.066;8.540;2022-09-24T05:45:15;11.00;99.90
21861;DHT22;11095;48.066;8.540;2022-09-24T05:47:45;11.10;99.90
21861;DHT22;11095;48.066;8.540;2022-09-24T05:50:12;11.00;99.90
21861;DHT22;11095;48.066;8.540;2022-09-24T05:52:39;11.10;99.90
21861;DHT22;11095;48.066;8.540;2022-09-24T05:55:06;11.10;99.90
21861;DHT22;11095;48.066;8.540;2022-09-24T05:57:32;11.10;99.90
21861;DHT22;11095;48.066;8.540;2022-09-24T05:59:58;11.10;99.90
21861;DHT22;11095;48.066;8.540;2022-09-24T06:02:24;11.10;99.90
21861;DHT22;11095;48.066;8.540;2022-09-24T06:04:49;11.10;99.90
21861;DHT22;11095;48.066;8.540;2022-09-24T06:07:15;11.10;99.90
21861;DHT22;11095;48.066;8.540;2022-09-24T06:09:41;11.20;99.90
21861;DHT22;11095;48.066;8.540;2022-09-24T06:12:07;11.20;99.90
21861;DHT22;11095;48.066;8.540;2022-09-24T06:14:35;11.20;99.90
21861;DHT22;11095;48.066;8.540;2022-09-24T06:17:01;11.20;99.90
21861;DHT22;11095;48.066;8.540;2022-09-24T06:19:26;11.20;99.90
21861;DHT22;11095;48.066;8.540;2022-09-24T06:21:52;11.20;99.90
21861;DHT22;11095;48.066;8.540;2022-09-24T06:24:17;11.30;99.90
21861;DHT22;11095;48.066;8.540;2022-09-24T06:26:43;11.30;99.90
21861;DHT22;11095;48.066;8.540;2022-09-24T06:29:09;11.30;99.90
21861;DHT22;11095;48.066;8.540;2022-09-24T06:31:34;11.30;99.90
21861;DHT22;11095;48.066;8.540;2022-09-24T06:34:00;11.30;99.90
21861;DHT22;11095;48.066;8.540;2022-09-24T06:36:27;11.40;99.90
21861;DHT22;11095;48.066;8.540;2022-09-24T06:38:53;11.40;99.90
21861;DHT22;11095;48.066;8.540;2022-09-24T06:41:19;11.40;99.90
21861;DHT22;11095;48.066;8.540;2022-09-24T06:43:45;11.50;99.90
21861;DHT22;11095;48.066;8.540;2022-09-24T06:46:11;11.50;99.90
21861;DHT22;11095;48.066;8.540;2022-09-24T06:48:38;11.50;99.90
21861;DHT22;11095;48.066;8.540;2022-09-24T06:51:04;11.50;99.90
21861;DHT22;11095;48.066;8.540;2022-09-24T06:53:30;11.60;99.90
21861;DHT22;11095;48.066;8.540;2022-09-24T06:55:59;11.60;99.90
21861;DHT22;11095;48.066;8.540;2022-09-24T06:58:25;11.60;99.90
21861;DHT22;11095;48.066;8.540;2022-09-24T07:00:59;11.60;99.90
21861;DHT22;11095;48.066;8.540;2022-09-24T07:03:28;11.70;99.90
21861;DHT22;11095;48.066;8.540;2022-09-24T07:05:54;11.70;99.90
21861;DHT22;11095;48.066;8.540;2022-09-24T07:08:21;11.70;99.90
21861;DHT22;11095;48.066;8.540;2022-09-24T07:10:47;11.80;99.90
21861;DHT22;11095;48.066;8.540;2022-09-24T07:13:19;11.80;99.90
21861;DHT22;11095;48.066;8.540;2022-09-24T07:15:46;11.80;99.90
21861;DHT22;11095;48.066;8.540;2022-09-24T07:18:12;11.90;99.90
21861;DHT22;11095;48.066;8.540;2022-09-24T07:20:38;11.90;99.90
21861;DHT22;11095;48.066;8.540;2022-09-24T07:23:05;11.90;99.90
21861;DHT22;11095;48.066;8.540;2022-09-24T07:25:31;12.00;99.90
21861;DHT22;11095;48.066;8.540;2022-09-24T07:28:08;12.00;99.90
21861;DHT22;11095;48.066;8.540;2022-09-24T07:30:34;12.20;99.90
21861;DHT22;11095;48.066;8.540;2022-09-24T07:33:00;12.30;99.90
21861;DHT22;11095;48.066;8.540;2022-09-24T07:35:26;12.50;99.90
21861;DHT22;11095;48.066;8.540;2022-09-24T07:38:00;12.60;99.90
21861;DHT22;11095;48.066;8.540;2022-09-24T07:40:26;12.70;99.90
21861;DHT22;11095;48.066;8.540;2022-09-24T07:42:53;12.70;99.90
21861;DHT22;11095;48.066;8.540;2022-09-24T07:45:23;12.80;99.90
21861;DHT22;11095;48.066;8.540;2022-09-24T07:48:03;13.00;99.90
21861;DHT22;11095;48.066;8.540;2022-09-24T07:50:32;13.10;99.90
21861;DHT22;11095;48.066;8.540;2022-09-24T07:52:58;13.10;99.90
21861;DHT22;11095;48.066;8.540;2022-09-24T07:55:26;13.10;99.90
21861;DHT22;11095;48.066;8.540;2022-09-24T07:57:53;13.20;99.90
21861;DHT22;11095;48.066;8.540;2022-09-24T08:00:20;13.40;99.90
21861;DHT22;11095;48.066;8.540;2022-09-24T08:02:47;13.50;99.90
21861;DHT22;11095;48.066;8.540;2022-09-24T08:05:14;13.50;99.90
21861;DHT22;11095;48.066;8.540;2022-09-24T08:07:41;13.60;99.90
21861;DHT22;11095;48.066;8.540;2022-09-24T08:10:07;13.70;99.90
21861;DHT22;11095;48.066;8.540;2022-09-24T08:12:33;13.80;99.90
21861;DHT22;11095;48.066;8.540;2022-09-24T08:14:59;13.90;99.90
21861;DHT22;11095;48.066;8.540;2022-09-24T08:17:24;13.90;99.90
21861;DHT22;11095;48.066;8.540;2022-09-24T08:19:51;14.00;99.90
21861;DHT22;11095;48.066;8.540;2022-09-24T08:22:21;14.00;99.90
21861;DHT22;11095;48.066;8.540;2022-09-24T08:24:47;13.90;99.90
21861;DHT22;11095;48.066;8.540;2022-09-24T08:27:13;14.00;99.90
21861;DHT22;11095;48.066;8.540;2022-09-24T08:29:38;14.00;99.90
21861;DHT22;11095;48.066;8.540;2022-09-24T08:32:04;14.00;99.90
21861;DHT22;11095;48.066;8.540;2022-09-24T08:34:30;14.20;99.90
21861;DHT22;11095;48.066;8.540;2022-09-24T08:37:11;14.40;99.90
21861;DHT22;11095;48.066;8.540;2022-09-24T08:39:38;14.50;99.90
21861;DHT22;11095;48.066;8.540;2022-09-24T08:42:12;14.60;99.90
21861;DHT22;11095;48.066;8.540;2022-09-24T08:44:40;14.70;99.90
21861;DHT22;11095;48.066;8.540;2022-09-24T08:50:07;14.70;99.90
21861;DHT22;11095;48.066;8.540;2022-09-24T08:58:15;14.60;99.90
21861;DHT22;11095;48.066;8.540;2022-09-24T09:09:00;14.30;99.90
21861;DHT22;11095;48.066;8.540;2022-09-24T09:11:30;14.20;99.90
21861;DHT22;11095;48.066;8.540;2022-09-24T09:14:04;14.20;99.90
21861;DHT22;11095;48.066;8.540;2022-09-24T09:19:12;14.10;99.90
21861;DHT22;11095;48.066;8.540;2022-09-24T09:21:51;14.00;99.90
21861;DHT22;11095;48.066;8.540;2022-09-24T09:24:23;14.00;99.90
21861;DHT22;11095;48.066;8.540;2022-09-24T09:26:54;14.10;99.90
21861;DHT22;11095;48.066;8.540;2022-09-24T09:29:21;14.10;99.90
21861;DHT22;11095;48.066;8.540;2022-09-24T09:37:41;14.40;99.90
21861;DHT22;11095;48.066;8.540;2022-09-24T09:43:09;14.60;99.90
21861;DHT22;11095;48.066;8.540;2022-09-24T09:48:17;14.70;99.90
21861;DHT22;11095;48.066;8.540;2022-09-24T09:50:51;14.70;99.90
21861;DHT22;11095;48.066;8.540;2022-09-24T09:53:28;14.60;99.90
21861;DHT22;11095;48.066;8.540;2022-09-24T09:56:01;14.70;99.90
21861;DHT22;11095;48.066;8.540;2022-09-24T09:58:36;14.70;99.90
21861;DHT22;11095;48.066;8.540;2022-09-24T10:01:10;14.60;99.90
21861;DHT22;11095;48.066;8.540;2022-09-24T10:03:46;14.60;99.90
21861;DHT22;11095;48.066;8.540;2022-09-24T10:06:25;14.60;99.90
21861;DHT22;11095;48.066;8.540;2022-09-24T10:08:51;14.60;99.90
21861;DHT22;11095;48.066;8.540;2022-09-24T10:11:17;14.60;99.90
21861;DHT22;11095;48.066;8.540;2022-09-24T10:13:44;14.60;99.90
21861;DHT22;11095;48.066;8.540;2022-09-24T10:16:11;14.80;99.90
21861;DHT22;11095;48.066;8.540;2022-09-24T10:18:48;14.90;99.90
21861;DHT22;11095;48.066;8.540;2022-09-24T10:21:25;15.10;99.90
21861;DHT22;11095;48.066;8.540;2022-09-24T10:23:59;15.40;99.90
21861;DHT22;11095;48.066;8.540;2022-09-24T10:26:39;15.70;99.90
21861;DHT22;11095;48.066;8.540;2022-09-24T10:29:09;16.20;99.90
21861;DHT22;11095;48.066;8.540;2022-09-24T10:31:58;16.70;99.90
21861;DHT22;11095;48.066;8.540;2022-09-24T10:34:25;17.30;99.90
21861;DHT22;11095;48.066;8.540;2022-09-24T10:37:02;17.70;99.90
21861;DHT22;11095;48.066;8.540;2022-09-24T10:39:29;17.80;99.90
21861;DHT22;11095;48.066;8.540;2022-09-24T10:41:56;17.70;99.90
21861;DHT22;11095;48.066;8.540;2022-09-24T10:44:23;17.80;99.90
21861;DHT22;11095;48.066;8.540;2022-09-24T10:49:47;17.90;99.90
21861;DHT22;11095;48.066;8.540;2022-09-24T10:58:11;17.30;99.90
21861;DHT22;11095;48.066;8.540;2022-09-24T11:00:54;17.20;99.90
21861;DHT22;11095;48.066;8.540;2022-09-24T11:06:16;17.10;99.90
21861;DHT22;11095;48.066;8.540;2022-09-24T11:09:00;17.10;99.90
21861;DHT22;11095;48.066;8.540;2022-09-24T11:17:37;17.10;99.90
21861;DHT22;11095;48.066;8.540;2022-09-24T11:20:35;16.90;99.90
21861;DHT22;11095;48.066;8.540;2022-09-24T11:23:23;16.50;99.90
21861;DHT22;11095;48.066;8.540;2022-09-24T11:26:09;16.30;99.90
21861;DHT22;11095;48.066;8.540;2022-09-24T11:36:45;15.80;99.90
21861;DHT22;11095;48.066;8.540;2022-09-24T11:44:35;15.20;99.90
21861;DHT22;11095;48.066;8.540;2022-09-24T11:52:52;14.70;99.90
21861;DHT22;11095;48.066;8.540;2022-09-24T11:55:26;14.40;99.90
21861;DHT22;11095;48.066;8.540;2022-09-24T12:00:49;14.10;99.90
21861;DHT22;11095;48.066;8.540;2022-09-24T12:03:23;13.90;99.90
21861;DHT22;11095;48.066;8.540;2022-09-24T12:05:50;13.70;99.90
21861;DHT22;11095;48.066;8.540;2022-09-24T12:08:27;13.50;99.90
21861;DHT22;11095;48.066;8.540;2022-09-24T12:11:11;13.40;99.90
21861;DHT22;11095;48.066;8.540;2022-09-24T12:13:57;13.30;99.90
21861;DHT22;11095;48.066;8.540;2022-09-24T12:16:29;13.20;99.90
21861;DHT22;11095;48.066;8.540;2022-09-24T12:21:39;13.10;99.90
21861;DHT22;11095;48.066;8.540;2022-09-24T12:24:35;13.10;99.90
21861;DHT22;11095;48.066;8.540;2022-09-24T12:27:09;13.00;99.90
21861;DHT22;11095;48.066;8.540;2022-09-24T12:29:39;12.90;99.90
21861;DHT22;11095;48.066;8.540;2022-09-24T12:35:42;12.80;99.90
21861;DHT22;11095;48.066;8.540;2022-09-24T12:38:20;12.90;99.90
21861;DHT22;11095;48.066;8.540;2022-09-24T12:43:52;13.10;99.90
21861;DHT22;11095;48.066;8.540;2022-09-24T12:46:23;13.20;99.90
21861;DHT22;11095;48.066;8.540;2022-09-24T12:48:50;13.30;99.90
21861;DHT22;11095;48.066;8.540;2022-09-24T12:51:18;13.40;99.90
21861;DHT22;11095;48.066;8.540;2022-09-24T12:53:58;13.60;99.90
21861;DHT22;11095;48.066;8.540;2022-09-24T12:56:28;13.70;99.90
21861;DHT22;11095;48.066;8.540;2022-09-24T12:58:55;13.80;99.90
21861;DHT22;11095;48.066;8.540;2022-09-24T13:06:42;13.80;99.90
21861;DHT22;11095;48.066;8.540;2022-09-24T13:14:48;13.70;99.90
21861;DHT22;11095;48.066;8.540;2022-09-24T13:17:14;13.70;99.90
21861;DHT22;11095;48.066;8.540;2022-09-24T13:19:42;13.80;99.90
21861;DHT22;11095;48.066;8.540;2022-09-24T13:22:24;13.90;99.90
21861;DHT22;11095;48.066;8.540;2022-09-24T13:25:03;13.90;99.90
21861;DHT22;11095;48.066;8.540;2022-09-24T13:30:25;14.20;99.90
21861;DHT22;11095;48.066;8.540;2022-09-24T13:35:43;14.80;99.90
21861;DHT22;11095;48.066;8.540;2022-09-24T13:38:22;15.00;99.90
21861;DHT22;11095;48.066;8.540;2022-09-24T13:41:24;15.20;99.90
21861;DHT22;11095;48.066;8.540;2022-09-24T13:44:01;15.30;99.90
21861;DHT22;11095;48.066;8.540;2022-09-24T13:46:29;15.30;99.90
21861;DHT22;11095;48.066;8.540;2022-09-24T13:49:02;15.30;99.90
21861;DHT22;11095;48.066;8.540;2022-09-24T13:51:33;15.30;99.90
21861;DHT22;11095;48.066;8.540;2022-09-24T13:54:32;15.30;99.90
21861;DHT22;11095;48.066;8.540;2022-09-24T13:57:10;15.30;99.90
21861;DHT22;11095;48.066;8.540;2022-09-24T13:59:37;15.30;99.90
21861;DHT22;11095;48.066;8.540;2022-09-24T14:02:03;15.30;99.90
21861;DHT22;11095;48.066;8.540;2022-09-24T14:04:29;15.30;99.90
21861;DHT22;11095;48.066;8.540;2022-09-24T14:07:01;15.20;99.90
21861;DHT22;11095;48.066;8.540;2022-09-24T14:09:35;15.20;99.90
21861;DHT22;11095;48.066;8.540;2022-09-24T14:12:12;15.20;99.90
21861;DHT22;11095;48.066;8.540;2022-09-24T14:14:43;15.20;99.90
21861;DHT22;11095;48.066;8.540;2022-09-24T14:17:13;15.20;99.90
21861;DHT22;11095;48.066;8.540;2022-09-24T14:19:38;15.20;99.90
21861;DHT22;11095;48.066;8.540;2022-09-24T14:22:10;15.10;99.90
21861;DHT22;11095;48.066;8.540;2022-09-24T14:24:43;15.00;99.90
21861;DHT22;11095;48.066;8.540;2022-09-24T14:27:12;15.00;99.90
21861;DHT22;11095;48.066;8.540;2022-09-24T14:32:28;15.00;99.90
21861;DHT22;11095;48.066;8.540;2022-09-24T14:34:58;14.90;99.90
21861;DHT22;11095;48.066;8.540;2022-09-24T14:37:30;14.90;99.90
21861;DHT22;11095;48.066;8.540;2022-09-24T14:40:07;14.90;99.90
21861;DHT22;11095;48.066;8.540;2022-09-24T14:42:45;14.90;99.90
21861;DHT22;11095;48.066;8.540;2022-09-24T14:45:24;14.90;99.90
21861;DHT22;11095;48.066;8.540;2022-09-24T14:48:05;14.90;99.90
21861;DHT22;11095;48.066;8.540;2022-09-24T14:50:39;14.90;99.90
21861;DHT22;11095;48.066;8.540;2022-09-24T14:53:32;14.80;99.90
21861;DHT22;11095;48.066;8.540;2022-09-24T14:56:00;14.80;99.90
21861;DHT22;11095;48.066;8.540;2022-09-24T14:58:33;14.80;99.90
21861;DHT22;11095;48.066;8.540;2022-09-24T15:01:08;14.80;99.90
21861;DHT22;11095;48.066;8.540;2022-09-24T15:03:46;14.80;99.90
21861;DHT22;11095;48.066;8.540;2022-09-24T15:06:29;14.90;99.90
21861;DHT22;11095;48.066;8.540;2022-09-24T15:11:33;15.20;99.90
21861;DHT22;11095;48.066;8.540;2022-09-24T15:14:12;15.20;99.90
21861;DHT22;11095;48.066;8.540;2022-09-24T15:16:42;15.20;99.90
21861;DHT22;11095;48.066;8.540;2022-09-24T15:19:21;15.20;99.90
21861;DHT22;11095;48.066;8.540;2022-09-24T15:21:49;15.20;99.90
21861;DHT22;11095;48.066;8.540;2022-09-24T15:24:16;15.20;99.90
21861;DHT22;11095;48.066;8.540;2022-09-24T15:26:44;15.20;99.90
21861;DHT22;11095;48.066;8.540;2022-09-24T15:29:17;15.20;99.90
21861;DHT22;11095;48.066;8.540;2022-09-24T15:31:45;15.10;99.90
21861;DHT22;11095;48.066;8.540;2022-09-24T15:34:11;15.10;99.90
21861;DHT22;11095;48.066;8.540;2022-09-24T15:36:36;15.10;99.90
21861;DHT22;11095;48.066;8.540;2022-09-24T15:39:03;15.10;99.90
21861;DHT22;11095;48.066;8.540;2022-09-24T15:41:28;15.10;99.90
21861;DHT22;11095;48.066;8.540;2022-09-24T15:43:58;15.10;99.90
21861;DHT22;11095;48.066;8.540;2022-09-24T15:46:24;15.10;99.90
21861;DHT22;11095;48.066;8.540;2022-09-24T15:48:50;15.00;99.90
21861;DHT22;11095;48.066;8.540;2022-09-24T15:51:18;14.80;99.90
21861;DHT22;11095;48.066;8.540;2022-09-24T15:53:45;14.70;99.90
21861;DHT22;11095;48.066;8.540;2022-09-24T15:56:11;14.50;99.90
21861;DHT22;11095;48.066;8.540;2022-09-24T15:58:37;14.40;99.90
21861;DHT22;11095;48.066;8.540;2022-09-24T16:01:03;14.30;99.90
21861;DHT22;11095;48.066;8.540;2022-09-24T16:03:30;14.20;99.90
21861;DHT22;11095;48.066;8.540;2022-09-24T16:05:57;14.10;99.90
21861;DHT22;11095;48.066;8.540;2022-09-24T16:08:24;14.00;99.90
21861;DHT22;11095;48.066;8.540;2022-09-24T16:10:50;14.00;99.90
21861;DHT22;11095;48.066;8.540;2022-09-24T16:13:16;13.90;99.90
21861;DHT22;11095;48.066;8.540;2022-09-24T16:15:42;13.80;99.90
21861;DHT22;11095;48.066;8.540;2022-09-24T16:18:12;13.80;99.90
21861;DHT22;11095;48.066;8.540;2022-09-24T16:20:38;13.80;99.90
21861;DHT22;11095;48.066;8.540;2022-09-24T16:23:05;13.70;99.90
21861;DHT22;11095;48.066;8.540;2022-09-24T16:25:31;13.60;99.90
21861;DHT22;11095;48.066;8.540;2022-09-24T16:27:57;13.50;99.90
21861;DHT22;11095;48.066;8.540;2022-09-24T16:30:23;13.50;99.90
21861;DHT22;11095;48.066;8.540;2022-09-24T16:32:49;13.40;99.90
21861;DHT22;11095;48.066;8.540;2022-09-24T16:35:15;13.40;99.90
21861;DHT22;11095;48.066;8.540;2022-09-24T16:37:41;13.30;99.90
21861;DHT22;11095;48.066;8.540;2022-09-24T16:40:06;13.30;99.90
21861;DHT22;11095;48.066;8.540;2022-09-24T16:42:33;13.20;99.90
21861;DHT22;11095;48.066;8.540;2022-09-24T16:44:59;13.20;99.90
21861;DHT22;11095;48.066;8.540;2022-09-24T16:47:25;13.20;99.90
21861;DHT22;11095;48.066;8.540;2022-09-24T16:49:50;13.20;99.90
21861;DHT22;11095;48.066;8.540;2022-09-24T16:52:16;13.20;99.90
21861;DHT22;11095;48.066;8.540;2022-09-24T16:54:42;13.20;99.90
21861;DHT22;11095;48.066;8.540;2022-09-24T16:57:08;13.20;99.90
21861;DHT22;11095;48.066;8.540;2022-09-24T16:59:33;13.20;99.90
21861;DHT22;11095;48.066;8.540;2022-09-24T17:01:59;13.10;99.90
21861;DHT22;11095;48.066;8.540;2022-09-24T17:04:25;13.00;99.90
21861;DHT22;11095;48.066;8.540;2022-09-24T17:06:55;13.00;99.90
21861;DHT22;11095;48.066;8.540;2022-09-24T17:09:21;12.90;99.90
21861;DHT22;11095;48.066;8.540;2022-09-24T17:12:06;12.80;99.90
21861;DHT22;11095;48.066;8.540;2022-09-24T17:14:35;12.70;99.90
21861;DHT22;11095;48.066;8.540;2022-09-24T17:17:01;12.60;99.90
21861;DHT22;11095;48.066;8.540;2022-09-24T17:19:26;12.60;99.90
21861;DHT22;11095;48.066;8.540;2022-09-24T17:21:52;12.50;99.90
21861;DHT22;11095;48.066;8.540;2022-09-24T17:24:18;12.50;99.90
21861;DHT22;11095;48.066;8.540;2022-09-24T17:26:44;12.40;99.90
21861;DHT22;11095;48.066;8.540;2022-09-24T17:29:10;12.30;99.90
21861;DHT22;11095;48.066;8.540;2022-09-24T17:31:36;12.30;99.90
21861;DHT22;11095;48.066;8.540;2022-09-24T17:34:04;12.20;99.90
21861;DHT22;11095;48.066;8.540;2022-09-24T17:36:32;12.10;99.90
21861;DHT22;11095;48.066;8.540;2022-09-24T17:38:59;12.10;99.90
21861;DHT22;11095;48.066;8.540;2022-09-24T17:41:26;12.00;99.90
21861;DHT22;11095;48.066;8.540;2022-09-24T17:43:53;12.00;99.90